Latest Weather Observations for Viewbank

IDV60901

Issued at 9:21 pm EST Tuesday 7 July 2015 (issued every 10 minutes, with the page automatically refreshed every 10 minutes)

About weather observations | Map of Melbourne area stations | Latest observations for Melbourne area | Other Formats
Station Details ID: 086068 Name: VIEWBANK Lat: -37.74 Lon: 145.10 Height: 66.1 m
Data from the previous 72 hours. | See also: Recent months at Viewbank
Date/Time
EST
Tmp

°C
App
Tmp
°C
Dew
Point
°C
Rel
Hum
%
Delta-T

°C
Wind Press
QNH
hPa
Press
MSL
hPa
Rain
since
9 am
mm
Dir
 
Spd
km/h
Gust
km/h
Spd
kts
Gust
kts
07/09:00pm 10.5 10.3 9.1 91 0.7 CALM 0 6 0 3 1024.6 1024.7 0.0
07/08:30pm 10.8 10.5 8.7 87 1.0 CALM 0 0 0 0 1024.4 1024.5 0.0
07/08:00pm 11.0 10.4 8.9 87 1.0 N 2 6 1 3 1024.2 1024.3 0.0
07/07:30pm 11.2 10.2 8.8 85 1.2 ESE 4 9 2 5 1024.1 1024.2 0.0
07/07:00pm 11.3 10.7 8.9 85 1.2 SSE 2 7 1 4 1024.0 1024.1 0.0
07/06:30pm 11.4 9.9 8.6 83 1.4 SSE 6 9 3 5 1023.7 1023.8 0.0
07/06:00pm 11.6 10.1 8.3 80 1.6 S 6 11 3 6 1023.6 1023.7 0.0
07/05:30pm 11.8 10.0 8.1 78 1.8 S 7 11 4 6 1023.3 1023.4 0.0
07/05:00pm 12.2 10.8 8.9 80 1.6 S 6 9 3 5 1023.2 1023.3 0.0
07/04:30pm 12.5 10.5 8.6 77 1.9 SSW 9 13 5 7 1023.0 1023.1 0.0
07/04:00pm 12.7 10.3 8.6 76 2.0 SSW 11 15 6 8 1022.8 1022.9 0.0
07/03:30pm 13.5 11.4 8.1 70 2.7 S 9 17 5 9 1022.5 1022.6 0.0
07/03:00pm 14.2 13.0 6.6 60 3.7 NNW 2 7 1 4 1022.3 1022.4 0.0
07/02:30pm 14.6 13.3 6.2 57 4.0 N 2 7 1 4 1022.0 1022.1 0.0
07/02:00pm 14.0 12.2 7.1 63 3.4 ENE 6 9 3 5 1022.0 1022.1 0.0
07/01:30pm 14.2 13.0 8.2 67 3.0 E 4 9 2 5 1022.2 1022.3 0.0
07/01:00pm 13.0 11.7 7.5 69 2.7 SSE 4 9 2 5 1022.4 1022.5 0.0
07/12:30pm 12.6 10.8 7.3 70 2.6 E 6 9 3 5 1022.5 1022.6 0.0
07/12:00pm 12.6 11.9 8.7 77 1.9 E 2 7 1 4 1022.6 1022.7 0.0
07/11:30am 12.0 10.5 8.3 78 1.8 ENE 6 11 3 6 1023.0 1023.1 0.0
07/11:00am 11.8 10.4 8.8 82 1.5 ENE 6 11 3 6 1023.1 1023.2 0.0
07/10:30am 10.5 9.3 9.6 94 0.5 NNE 6 9 3 5 1023.1 1023.2 0.0
07/10:00am 9.2 7.9 9.2 100 0.0 ENE 6 7 3 4 1023.0 1023.1 0.0
07/09:30am 8.6 7.1 8.6 100 0.0 ENE 6 7 3 4 1022.8 1022.9 0.0
07/09:00am 8.0 6.8 8.0 100 0.0 NE 4 7 2 4 1022.5 1022.6 3.4
07/08:30am 7.5 5.6 7.5 100 0.0 ENE 7 9 4 5 1022.4 1022.5 3.4
07/08:00am 7.3 5.3 7.3 100 0.0 ENE 7 9 4 5 1022.1 1022.2 3.4
07/07:30am 7.4 6.8 7.4 100 0.0 CALM 0 0 0 0 1021.7 1021.8 3.4
07/07:00am 7.3 6.7 7.3 100 0.0 CALM 0 6 0 3 1021.1 1021.2 3.4
07/06:30am 7.3 6.7 7.3 100 0.0 CALM 0 0 0 0 1020.7 1020.8 3.4
07/06:00am 7.4 6.8 7.4 100 0.0 CALM 0 6 0 3 1020.3 1020.4 3.2
07/05:30am 7.3 5.0 7.3 100 0.0 ENE 9 11 5 6 1020.0 1020.1 3.2
07/05:00am 7.4 5.5 7.4 100 0.0 ENE 7 9 4 5 1019.9 1020.0 3.0
07/04:30am 7.5 6.9 7.4 99 0.0 CALM 0 6 0 3 1019.8 1019.9 2.2
07/04:00am 7.4 6.8 7.3 99 0.0 CALM 0 0 0 0 1019.6 1019.7 2.2
07/03:30am 7.4 6.8 7.3 99 0.0 CALM 0 0 0 0 1019.5 1019.6 2.2
07/03:00am 7.3 6.3 7.2 99 0.0 ENE 2 6 1 3 1019.5 1019.6 2.2
07/02:30am 7.3 4.9 7.2 99 0.0 ENE 9 11 5 6 1019.4 1019.5 2.2
07/02:00am 7.4 6.8 7.3 99 0.0 CALM 0 0 0 0 1019.1 1019.2 2.2
07/01:30am 7.5 6.5 7.4 99 0.0 NE 2 6 1 3 1018.8 1018.9 2.2
07/01:00am 7.5 5.8 7.4 99 0.0 NE 6 7 3 4 1018.6 1018.7 2.2
07/12:30am 7.6 6.3 7.5 99 0.0 NE 4 6 2 3 1018.6 1018.7 2.2
07/12:00am 7.8 5.9 7.7 99 0.0 NE 7 11 4 6 1018.7 1018.8 2.2
 
Date/Time
EST
Tmp

°C
App
Tmp
°C
Dew
Point
°C
Rel
Hum
%
Delta-T

°C
Wind Press
QNH
hPa
Press
MSL
hPa
Rain
since
9 am
mm
Dir
 
Spd
km/h
Gust
km/h
Spd
kts
Gust
kts
06/11:30pm 7.7 5.8 7.6 99 0.0 ENE 7 9 4 5 1018.7 1018.8 2.2
06/11:00pm 7.7 6.0 7.7 100 0.0 NE 6 7 3 4 1018.6 1018.7 2.2
06/10:30pm 7.9 6.1 7.9 100 0.0 ENE 7 9 4 5 1018.6 1018.7 2.2
06/10:00pm 8.1 6.3 8.0 99 0.0 NE 7 9 4 5 1018.5 1018.6 2.2
06/09:30pm 8.0 6.4 7.9 99 0.0 NE 6 11 3 6 1018.2 1018.3 2.2
06/09:00pm 7.9 6.3 7.9 100 0.0 NE 6 9 3 5 1018.1 1018.2 2.2
06/08:30pm 8.0 6.2 7.9 99 0.0 NE 7 11 4 6 1018.0 1018.1 2.2
06/08:00pm 8.3 6.5 7.9 97 0.2 NNE 7 11 4 6 1017.7 1017.8 2.0
06/07:30pm 8.3 6.7 8.0 98 0.1 N 6 9 3 5 1017.5 1017.6 1.8
06/07:00pm 8.3 7.1 8.2 99 0.0 N 4 7 2 4 1017.5 1017.6 1.8
06/06:30pm 8.4 6.7 8.3 99 0.0 N 7 13 4 7 1017.0 1017.1 1.8
06/06:00pm 8.5 7.0 8.4 99 0.0 NE 6 9 3 5 1016.7 1016.8 1.8
06/05:30pm 8.7 7.6 8.6 99 0.0 NNE 4 9 2 5 1016.3 1016.4 1.6
06/05:00pm 9.1 6.9 7.7 91 0.7 N 9 13 5 7 1016.2 1016.3 1.2
06/04:30pm 9.6 6.2 6.1 79 1.6 N 13 19 7 10 1015.9 1016.0 1.0
06/04:00pm 10.1 5.5 5.5 73 2.1 N 19 30 10 16 1015.7 1015.8 1.0
06/03:30pm 10.4 7.5 6.4 76 1.9 NNE 11 19 6 10 1015.5 1015.6 1.0
06/03:00pm 10.4 8.2 6.4 76 1.9 NNE 7 13 4 7 1015.4 1015.5 1.0
06/02:30pm 10.4 8.4 6.2 75 2.0 NE 6 9 3 5 1015.4 1015.5 1.0
06/02:00pm 10.4 8.2 6.0 74 2.0 NE 7 11 4 6 1015.5 1015.6 1.0
06/01:30pm 10.3 8.4 6.8 79 1.7 NE 6 11 3 6 1015.7 1015.8 1.0
06/01:00pm 10.0 8.1 6.9 81 1.5 NE 6 11 3 6 1016.0 1016.1 1.0
06/12:30pm 9.8 7.8 7.1 83 1.3 NNE 7 15 4 8 1016.0 1016.1 1.0
06/12:00pm 9.1 7.7 9.0 99 0.0 NE 6 7 3 4 1016.3 1016.4 1.0
06/11:30am 8.4 6.9 8.3 99 0.0 NE 6 7 3 4 1016.6 1016.7 1.0
06/11:00am 7.9 6.3 7.8 99 0.0 NE 6 9 3 5 1016.9 1017.0 1.0
06/10:30am 7.7 6.0 7.6 99 0.0 NE 6 9 3 5 1017.0 1017.1 1.0
06/10:00am 7.4 5.7 7.4 100 0.0 NE 6 9 3 5 1017.0 1017.1 0.8
06/09:30am 7.3 5.5 7.3 100 0.0 ENE 6 9 3 5 1017.2 1017.3 0.4
06/09:00am 7.3 6.3 7.2 99 0.0 NE 2 7 1 4 1017.1 1017.2 1.6
06/08:30am 7.8 5.1 5.6 86 1.0 NNE 9 20 5 11 1016.9 1017.0 0.6
06/08:00am 8.5 4.7 3.9 73 2.0 N 13 22 7 12 1016.7 1016.8 0.0
06/07:30am 9.0 5.4 3.2 67 2.5 NNE 11 24 6 13 1016.8 1016.9 0.0
06/07:00am 9.2 4.5 3.0 65 2.7 N 17 24 9 13 1016.7 1016.8 0.0
06/06:30am 9.3 5.7 2.9 64 2.7 NNE 11 20 6 11 1016.7 1016.8 0.0
06/06:00am 9.2 6.0 3.2 66 2.6 NNE 9 20 5 11 1016.3 1016.4 0.0
06/05:30am 9.3 5.8 3.3 66 2.6 NNE 11 22 6 12 1016.3 1016.4 0.0
06/05:00am 9.5 5.9 3.0 64 2.8 NNE 11 30 6 16 1016.5 1016.6 0.0
06/04:30am 9.3 5.8 3.5 67 2.5 NNE 11 28 6 15 1016.4 1016.5 0.0
06/04:00am 9.4 5.5 3.6 67 2.5 NNE 13 24 7 13 1016.5 1016.6 0.0
06/03:30am 9.3 6.2 3.5 67 2.5 NE 9 20 5 11 1016.6 1016.7 0.0
06/03:00am 9.2 6.5 3.6 68 2.4 NE 7 13 4 7 1016.8 1016.9 0.0
06/02:30am 9.6 5.4 3.6 66 2.6 NNE 15 24 8 13 1017.1 1017.2 0.0
06/02:00am 9.7 4.6 3.2 64 2.8 NNE 19 35 10 19 1017.1 1017.2 0.0
06/01:30am 9.6 5.3 3.4 65 2.7 NNE 15 28 8 15 1017.4 1017.5 0.0
06/01:00am 9.6 5.7 3.6 66 2.6 NNE 13 26 7 14 1017.6 1017.7 0.0
06/12:30am 9.1 6.1 3.9 70 2.3 NNE 9 19 5 10 1017.9 1018.0 0.0
06/12:00am 8.5 5.8 3.9 73 2.0 NE 7 11 4 6 1017.9 1018.0 0.0
 
Date/Time
EST
Tmp

°C
App
Tmp
°C
Dew
Point
°C
Rel
Hum
%
Delta-T

°C
Wind Press
QNH
hPa
Press
MSL
hPa
Rain
since
9 am
mm
Dir
 
Spd
km/h
Gust
km/h
Spd
kts
Gust
kts
05/11:30pm 8.5 5.8 3.9 73 2.0 NE 7 11 4 6 1018.1 1018.2 0.0
05/11:00pm 8.7 6.0 3.9 72 2.1 NE 7 11 4 6 1018.0 1018.1 0.0
05/10:30pm 8.7 5.7 3.9 72 2.1 NE 9 15 5 8 1018.0 1018.1 0.0
05/10:00pm 8.7 6.0 3.9 72 2.1 NE 7 11 4 6 1018.1 1018.2 0.0
05/09:30pm 8.9 6.5 4.1 72 2.1 NE 6 11 3 6 1018.3 1018.4 0.0
05/09:00pm 9.0 6.4 4.4 73 2.0 NE 7 17 4 9 1018.3 1018.4 0.0
05/08:30pm 9.1 6.1 4.3 72 2.1 ENE 9 11 5 6 1018.4 1018.5 0.0
05/08:00pm 9.3 6.7 4.3 71 2.2 NE 7 11 4 6 1018.4 1018.5 0.0
05/07:30pm 9.3 6.4 4.5 72 2.1 ENE 9 13 5 7 1018.4 1018.5 0.0
05/07:00pm 9.5 6.5 4.3 70 2.3 NE 9 15 5 8 1018.2 1018.3 0.0
05/06:30pm 9.8 7.2 4.4 69 2.4 NE 7 11 4 6 1018.2 1018.3 0.0
05/06:00pm 10.1 7.6 4.5 68 2.5 NE 7 13 4 7 1018.2 1018.3 0.0
05/05:30pm 10.8 7.8 4.3 64 2.9 NNE 9 17 5 9 1017.9 1018.0 0.0
05/05:00pm 11.4 8.1 4.4 62 3.2 NNE 11 20 6 11 1017.9 1018.0 0.0
05/04:30pm 11.8 8.2 4.8 62 3.2 NNE 13 24 7 13 1018.0 1018.1 0.0
05/04:00pm 12.0 7.9 4.5 60 3.4 NNE 15 32 8 17 1018.0 1018.1 0.0
05/03:30pm 12.0 7.9 4.2 59 3.5 NNE 15 28 8 15 1018.1 1018.2 0.0
05/03:00pm 12.0 7.3 5.0 62 3.2 NNE 19 33 10 18 1018.2 1018.3 0.0
05/02:30pm 12.2 8.2 4.7 60 3.4 N 15 28 8 15 1018.5 1018.6 0.0
05/02:00pm 12.7 8.3 4.9 59 3.6 N 17 26 9 14 1018.4 1018.5 0.0
05/01:30pm 13.2 8.4 4.6 56 4.0 N 19 33 10 18 1018.5 1018.6 0.0
05/01:00pm 12.6 7.6 4.6 58 3.7 N 20 37 11 20 1018.8 1018.9 0.0
05/12:30pm 12.6 8.1 4.3 57 3.8 NNW 17 28 9 15 1019.2 1019.3 0.0
05/12:00pm 13.1 9.5 4.8 57 3.8 N 13 28 7 15 1019.4 1019.5 0.0
05/11:30am 12.7 9.4 4.4 57 3.8 N 11 26 6 14 1019.8 1019.9 0.0
05/11:00am 11.8 8.1 4.5 61 3.3 NNE 13 22 7 12 1020.2 1020.3 0.0
05/10:30am 11.1 8.1 4.3 63 3.1 NNE 9 19 5 10 1020.6 1020.7 0.0
05/10:00am 10.1 7.1 4.0 66 2.7 NNE 9 22 5 12 1020.7 1020.8 0.0
05/09:30am 9.7 5.4 3.4 65 2.7 NNE 15 26 8 14 1020.8 1020.9 0.0
05/09:00am 9.7 5.9 3.7 66 2.6 NNE 13 28 7 15 1020.8 1020.9 4.2
05/08:30am 9.0 5.4 3.2 67 2.5 NNE 11 22 6 12 1020.7 1020.8 4.2
05/08:00am 9.2 5.7 3.4 67 2.5 NNE 11 24 6 13 1020.8 1020.9 4.2
05/07:30am 9.2 6.5 3.6 68 2.4 NNE 7 15 4 8 1020.8 1020.9 4.2
05/07:00am 9.1 7.0 3.9 70 2.3 NE 4 11 2 6 1020.6 1020.7 4.2
05/06:30am 9.4 6.7 3.8 68 2.5 E 7 15 4 8 1020.5 1020.6 4.2
05/06:00am 9.4 6.4 4.0 69 2.4 NNE 9 19 5 10 1020.0 1020.1 4.2
05/05:30am 9.5 5.7 3.9 68 2.5 NNE 13 26 7 14 1019.6 1019.7 4.2
05/05:00am 9.6 5.8 4.0 68 2.5 NNE 13 26 7 14 1019.6 1019.7 4.2
05/04:30am 8.3 5.8 6.4 88 0.9 ENE 9 13 5 7 1020.0 1020.1 4.2
05/04:00am 8.1 6.3 7.3 95 0.4 ESE 6 11 3 6 1020.4 1020.5 4.2
05/03:30am 9.0 6.6 5.4 78 1.6 NE 7 15 4 8 1020.4 1020.5 4.2
05/03:00am 9.2 6.4 5.0 75 1.9 NNE 9 17 5 9 1020.9 1021.0 4.2
05/02:30am 9.0 6.3 5.4 78 1.6 NNE 9 20 5 11 1021.1 1021.2 4.2
05/02:00am 8.3 6.3 7.1 92 0.6 NE 7 11 4 6 1021.3 1021.4 4.0
05/01:30am 8.6 6.7 6.7 88 0.9 ENE 6 7 3 4 1021.3 1021.4 3.6
05/01:00am 8.7 6.3 6.8 88 0.9 ENE 9 13 5 7 1021.3 1021.4 3.4
05/12:30am 8.9 6.9 6.9 87 0.9 ENE 7 11 4 6 1021.3 1021.4 3.4
05/12:00am 9.0 6.1 6.3 83 1.2 NE 11 17 6 9 1021.4 1021.5 3.4
 
Date/Time
EST
Tmp

°C
App
Tmp
°C
Dew
Point
°C
Rel
Hum
%
Delta-T

°C
Wind Press
QNH
hPa
Press
MSL
hPa
Rain
since
9 am
mm
Dir
 
Spd
km/h
Gust
km/h
Spd
kts
Gust
kts
04/11:30pm 9.6 6.5 5.6 76 1.8 NNE 11 20 6 11 1021.6 1021.7 3.2
04/11:00pm 8.5 6.7 7.3 92 0.6 NE 6 9 3 5 1021.8 1021.9 3.2
04/10:30pm 8.0 6.2 7.9 99 0.0 ENE 7 11 4 6 1021.8 1021.9 3.2
04/10:00pm 7.9 6.1 7.8 99 0.0 ENE 7 9 4 5 1021.9 1022.0 3.2
04/09:30pm 7.9 5.7 7.8 99 0.0 ENE 9 11 5 6 1022.0 1022.1 3.2

Latest Capital City Observations: Canberra | Sydney | Melbourne | Brisbane | Adelaide | Perth | Hobart | Darwin

Other Formats:

Comma delimited format used in spreadsheet applications
http://www.bom.gov.au/fwo/IDV60901/IDV60901.95874.axf

JavaScript Object Notation format (JSON) in row-major order
http://www.bom.gov.au/fwo/IDV60901/IDV60901.95874.json